createdAt,value
2019-05-20T00:00:24.740Z,19.39
2019-05-20T00:01:05.318Z,19.3
2019-05-20T00:01:45.890Z,19.33
2019-05-20T00:02:28.432Z,19.36
2019-05-20T00:03:07.088Z,19.29
2019-05-20T00:03:47.673Z,19.34
2019-05-20T00:04:28.293Z,19.31
2019-05-20T00:05:08.863Z,19.26
2019-05-20T00:05:49.520Z,19.31
2019-05-20T00:06:30.169Z,19.27
2019-05-20T00:07:10.808Z,19.34
2019-05-20T00:07:51.388Z,19.29
2019-05-20T00:08:32.005Z,19.29
2019-05-20T00:09:12.618Z,19.31
2019-05-20T00:09:53.212Z,19.27
2019-05-20T00:10:33.793Z,19.24
2019-05-20T00:11:14.349Z,19.29
2019-05-20T00:11:54.949Z,19.21
2019-05-20T00:12:35.539Z,19.24
2019-05-20T00:15:34.400Z,19.18
2019-05-20T00:16:14.946Z,19.16
2019-05-20T00:16:55.582Z,19.12
2019-05-20T00:17:36.203Z,19.12
2019-05-20T00:18:16.771Z,19.15
2019-05-20T00:18:57.357Z,19.12
2019-05-20T00:19:37.946Z,19.15
2019-05-20T00:20:18.569Z,19.16
2019-05-20T00:20:59.142Z,19.12
2019-05-20T00:21:39.809Z,19.12
2019-05-20T00:22:20.358Z,19.07
2019-05-20T00:23:00.966Z,19.07
2019-05-20T00:23:41.560Z,19.15
2019-05-20T00:24:22.139Z,19.08
2019-05-20T00:25:02.724Z,19.02
2019-05-20T00:25:43.315Z,18.99
2019-05-20T00:26:23.889Z,19.07
2019-05-20T00:27:04.467Z,19.09
2019-05-20T00:27:45.080Z,19.14
2019-05-20T00:28:25.659Z,19.04
2019-05-20T00:29:06.231Z,19.02
2019-05-20T00:29:46.800Z,18.99
2019-05-20T00:30:27.432Z,18.95
2019-05-20T00:31:08.023Z,19.04
2019-05-20T00:31:48.580Z,19.04
2019-05-20T00:32:40.520Z,19
2019-05-20T00:33:09.757Z,18.98
2019-05-20T00:33:50.312Z,18.92
2019-05-20T00:34:34.869Z,18.92
2019-05-20T00:35:11.494Z,18.96
2019-05-20T00:35:52.133Z,18.92
2019-05-20T00:36:32.712Z,18.96
2019-05-20T00:37:13.293Z,18.98
2019-05-20T00:37:53.848Z,18.9
2019-05-20T00:38:34.435Z,18.95
2019-05-20T00:39:15.092Z,18.92
2019-05-20T00:39:55.684Z,18.84
2019-05-20T00:40:36.289Z,18.89
2019-05-20T00:41:16.857Z,19.04
2019-05-20T00:41:57.421Z,18.92
2019-05-20T00:42:37.992Z,19.02
2019-05-20T00:43:18.606Z,18.89
2019-05-20T00:43:59.188Z,18.89
2019-05-20T00:44:39.856Z,18.99
2019-05-20T00:45:20.481Z,18.9
2019-05-20T00:46:01.096Z,18.89
2019-05-20T00:46:41.656Z,18.95
2019-05-20T00:47:22.220Z,18.88
2019-05-20T00:48:02.816Z,18.89
2019-05-20T00:48:43.389Z,18.93
2019-05-20T00:49:23.980Z,18.88
2019-05-20T00:50:04.597Z,18.81
2019-05-20T00:50:45.147Z,18.86
2019-05-20T00:51:25.732Z,18.95
2019-05-20T00:52:06.335Z,18.89
2019-05-20T00:52:46.900Z,18.89
2019-05-20T00:53:27.535Z,18.84
2019-05-20T00:54:08.123Z,18.95
2019-05-20T00:54:48.679Z,18.96
2019-05-20T00:55:29.257Z,18.95
2019-05-20T00:56:09.809Z,18.88
2019-05-20T00:56:50.390Z,18.83
2019-05-20T00:57:30.966Z,18.93
2019-05-20T00:58:11.535Z,18.89
2019-05-20T00:58:52.141Z,18.88
2019-05-20T00:59:32.684Z,18.74
2019-05-20T01:00:13.259Z,18.77
2019-05-20T01:00:53.833Z,18.75
2019-05-20T01:01:34.414Z,18.78
2019-05-20T01:02:15.002Z,18.78
2019-05-20T01:02:57.123Z,18.77
2019-05-20T01:03:36.234Z,18.78
2019-05-20T01:04:16.802Z,18.83
2019-05-20T01:04:57.560Z,18.83
2019-05-20T01:05:38.024Z,18.73
2019-05-20T01:06:18.607Z,18.78
2019-05-20T01:06:59.231Z,18.71
2019-05-20T01:07:39.807Z,18.7
2019-05-20T01:08:20.399Z,18.71
2019-05-20T01:09:01.026Z,18.74
2019-05-20T01:09:41.603Z,18.71
2019-05-20T01:10:22.208Z,18.7
2019-05-20T01:11:02.797Z,18.62
2019-05-20T01:11:43.431Z,18.6
2019-05-20T01:12:24.033Z,18.66
2019-05-20T01:13:04.723Z,18.68
2019-05-20T01:13:45.289Z,18.66
2019-05-20T01:14:25.886Z,18.62
2019-05-20T01:15:06.472Z,18.59
2019-05-20T01:15:47.055Z,18.66
2019-05-20T01:16:27.639Z,18.62
2019-05-20T01:17:08.296Z,18.55
2019-05-20T01:17:48.919Z,18.6
2019-05-20T01:18:29.513Z,18.62
2019-05-20T01:19:10.188Z,18.59
2019-05-20T01:19:50.748Z,18.62
2019-05-20T01:20:31.308Z,18.58
2019-05-20T01:21:11.855Z,18.56
2019-05-20T01:21:52.477Z,18.58
2019-05-20T01:22:33.057Z,18.6
2019-05-20T01:23:13.641Z,18.5
2019-05-20T01:23:54.214Z,18.56
2019-05-20T01:24:34.774Z,18.53
2019-05-20T01:25:15.379Z,18.5
2019-05-20T01:25:55.975Z,18.43
2019-05-20T01:26:36.584Z,18.49
2019-05-20T01:27:17.203Z,18.53
2019-05-20T01:27:57.758Z,18.45
2019-05-20T01:28:38.334Z,18.49
2019-05-20T01:29:18.911Z,18.4
2019-05-20T01:29:59.504Z,18.47
2019-05-20T01:30:40.112Z,18.44
2019-05-20T01:31:20.687Z,18.44
2019-05-20T01:32:01.259Z,18.43
2019-05-20T01:32:41.830Z,18.44
2019-05-20T01:33:22.408Z,18.47
2019-05-20T01:34:03.028Z,18.43
2019-05-20T01:34:43.583Z,18.47
2019-05-20T01:35:24.167Z,18.47
2019-05-20T01:36:04.739Z,18.44
2019-05-20T01:36:45.347Z,18.5
2019-05-20T01:37:25.963Z,18.47
2019-05-20T01:38:06.567Z,18.44
2019-05-20T01:38:47.152Z,18.49
2019-05-20T01:39:27.727Z,18.37
2019-05-20T01:40:08.365Z,18.45
2019-05-20T01:40:48.953Z,18.41
2019-05-20T01:41:29.526Z,18.44
2019-05-20T01:42:10.075Z,18.45
2019-05-20T01:42:50.670Z,18.45
2019-05-20T01:43:31.255Z,18.43
2019-05-20T01:44:11.841Z,18.45
2019-05-20T01:44:52.523Z,18.45
2019-05-20T01:45:33.139Z,18.38
2019-05-20T01:46:13.762Z,18.45
2019-05-20T01:49:07.537Z,18.43
2019-05-20T01:49:48.086Z,18.38
2019-05-20T01:50:28.647Z,18.44
2019-05-20T01:51:09.257Z,18.41
2019-05-20T01:51:49.843Z,18.44
2019-05-20T01:52:30.478Z,18.41
2019-05-20T01:53:11.013Z,18.43
2019-05-20T01:53:51.586Z,18.45
2019-05-20T01:54:32.175Z,18.45
2019-05-20T01:55:12.755Z,18.47
2019-05-20T01:55:53.335Z,18.45
2019-05-20T01:56:33.969Z,18.5
2019-05-20T01:59:32.766Z,18.4
2019-05-20T02:00:13.347Z,18.45
2019-05-20T02:00:53.923Z,18.41
2019-05-20T02:01:34.524Z,18.4
2019-05-20T02:02:15.092Z,18.35
2019-05-20T02:02:55.702Z,18.41
2019-05-20T02:03:36.268Z,18.35
2019-05-20T02:04:16.833Z,18.37
2019-05-20T02:04:57.406Z,18.45
2019-05-20T02:05:38.090Z,18.45
2019-05-20T02:06:18.585Z,18.41
2019-05-20T02:06:59.164Z,18.45
2019-05-20T02:07:39.799Z,18.41
2019-05-20T02:08:20.386Z,18.4
2019-05-20T02:09:00.947Z,18.44
2019-05-20T02:09:41.520Z,18.43
2019-05-20T02:10:22.107Z,18.45
2019-05-20T02:11:02.709Z,18.45
2019-05-20T02:11:45.990Z,18.4
2019-05-20T02:12:26.525Z,18.41
2019-05-20T02:13:07.114Z,18.45
2019-05-20T02:13:47.665Z,18.49
2019-05-20T02:14:28.304Z,18.44
2019-05-20T02:15:08.873Z,18.44
2019-05-20T02:15:49.444Z,18.34
2019-05-20T02:16:30.040Z,18.35
2019-05-20T02:17:10.610Z,18.33
2019-05-20T02:17:51.238Z,18.29
2019-05-20T02:18:31.821Z,18.29
2019-05-20T02:19:12.410Z,18.31
2019-05-20T02:19:53.009Z,18.26
2019-05-20T02:20:33.631Z,18.26
2019-05-20T02:21:14.215Z,18.33
2019-05-20T02:21:54.815Z,18.26
2019-05-20T02:22:35.388Z,18.4
2019-05-20T02:23:16.339Z,18.31
2019-05-20T02:23:56.827Z,18.29
2019-05-20T02:24:37.412Z,18.25
2019-05-20T02:25:17.979Z,18.29
2019-05-20T02:25:58.566Z,18.33
2019-05-20T02:26:39.132Z,18.26
2019-05-20T02:27:19.716Z,18.34
2019-05-20T02:28:00.295Z,18.34
2019-05-20T02:28:40.896Z,18.35
2019-05-20T02:29:21.489Z,18.25
2019-05-20T02:30:02.173Z,18.33
2019-05-20T02:30:42.671Z,18.29
2019-05-20T02:31:23.272Z,18.29
2019-05-20T02:32:03.923Z,18.25
2019-05-20T02:32:44.448Z,18.22
2019-05-20T02:33:25.059Z,18.26
2019-05-20T02:34:05.725Z,18.29
2019-05-20T02:34:46.296Z,18.11
2019-05-20T02:35:26.931Z,18.18
2019-05-20T02:36:07.547Z,18.18
2019-05-20T02:36:48.082Z,18.19
2019-05-20T02:37:28.668Z,18.2
2019-05-20T02:38:09.306Z,18.19
2019-05-20T02:38:49.884Z,18.25
2019-05-20T02:39:30.484Z,18.16
2019-05-20T02:40:11.034Z,18.2
2019-05-20T02:40:51.611Z,18.2
2019-05-20T02:41:32.222Z,18.16
2019-05-20T02:42:12.805Z,18.1
2019-05-20T02:42:53.378Z,18.15
2019-05-20T02:43:34.009Z,18.2
2019-05-20T02:44:14.592Z,18.13
2019-05-20T02:44:55.177Z,18.13
2019-05-20T02:45:35.757Z,18.07
2019-05-20T02:46:16.322Z,18.08
2019-05-20T02:46:56.905Z,18.03
2019-05-20T02:47:37.576Z,18.08
2019-05-20T02:48:18.112Z,18.04
2019-05-20T02:48:58.683Z,18.05
2019-05-20T02:49:39.238Z,18.03
2019-05-20T02:50:19.844Z,18.04
2019-05-20T02:51:00.407Z,18.04
2019-05-20T02:51:40.960Z,18.01
2019-05-20T02:52:21.536Z,18.08
2019-05-20T02:53:02.123Z,18.07
2019-05-20T02:53:42.758Z,18.07
2019-05-20T02:54:23.319Z,18.07
2019-05-20T02:55:03.881Z,18.08
2019-05-20T02:55:44.459Z,18.07
2019-05-20T02:56:25.108Z,18.03
2019-05-20T02:57:05.644Z,18.03
2019-05-20T02:57:46.214Z,18.03
2019-05-20T02:58:26.802Z,18
2019-05-20T02:59:07.402Z,18.04
2019-05-20T02:59:48.059Z,18.08
2019-05-20T03:00:28.571Z,18.04
2019-05-20T03:01:09.132Z,18
2019-05-20T03:01:49.701Z,18.04
2019-05-20T03:02:30.260Z,18.04
2019-05-20T03:03:10.820Z,18.05
2019-05-20T03:04:09.805Z,18
2019-05-20T03:04:32.068Z,18.03
2019-05-20T03:05:12.686Z,18.08
2019-05-20T03:05:53.271Z,18.01
2019-05-20T03:06:33.897Z,18.07
2019-05-20T03:07:14.472Z,18.03
2019-05-20T03:07:55.091Z,18.04
2019-05-20T03:08:35.677Z,18.03
2019-05-20T03:09:16.259Z,17.98
2019-05-20T03:09:56.848Z,18
2019-05-20T03:10:37.431Z,17.97
2019-05-20T03:11:18.065Z,17.98
2019-05-20T03:11:58.663Z,17.97
2019-05-20T03:12:39.261Z,17.97
2019-05-20T03:13:19.823Z,17.95
2019-05-20T03:14:00.393Z,17.95
2019-05-20T03:14:40.975Z,17.97
2019-05-20T03:15:21.531Z,17.92
2019-05-20T03:16:02.129Z,17.94
2019-05-20T03:16:42.699Z,17.94
2019-05-20T03:17:23.276Z,17.92
2019-05-20T03:18:03.918Z,17.87
2019-05-20T03:18:44.481Z,17.87
2019-05-20T03:19:25.058Z,17.89
2019-05-20T03:20:05.705Z,17.83
2019-05-20T03:20:46.239Z,17.9
2019-05-20T03:21:26.820Z,17.87
2019-05-20T03:22:07.451Z,17.85
2019-05-20T03:22:47.999Z,17.86
2019-05-20T03:23:28.812Z,17.86
2019-05-20T03:24:09.406Z,17.8
2019-05-20T03:24:49.992Z,17.82
2019-05-20T03:25:30.581Z,17.89
2019-05-20T03:26:11.152Z,17.82
2019-05-20T03:26:51.706Z,17.86
2019-05-20T03:27:32.282Z,17.83
2019-05-20T03:28:12.867Z,17.85
2019-05-20T03:28:53.486Z,17.86
2019-05-20T03:29:34.113Z,17.8
2019-05-20T03:30:14.730Z,17.87
2019-05-20T03:30:55.336Z,17.86
2019-05-20T03:31:35.887Z,17.89
2019-05-20T03:32:16.436Z,17.8
2019-05-20T03:32:57.022Z,17.89
2019-05-20T03:33:37.639Z,17.86
2019-05-20T03:34:42.869Z,17.89
2019-05-20T03:35:00.778Z,17.85
2019-05-20T03:35:39.388Z,17.9
2019-05-20T03:36:19.935Z,17.87
2019-05-20T03:37:00.504Z,17.87
2019-05-20T03:37:41.114Z,17.79
2019-05-20T03:38:21.687Z,17.79
2019-05-20T03:39:02.251Z,17.8
2019-05-20T03:39:42.807Z,17.83
2019-05-20T03:40:23.404Z,17.83
2019-05-20T03:41:04.005Z,17.87
2019-05-20T03:41:44.584Z,17.79
2019-05-20T03:42:25.155Z,17.9
2019-05-20T03:43:05.754Z,17.82
2019-05-20T03:43:46.304Z,17.83
2019-05-20T03:44:26.870Z,17.85
2019-05-20T03:45:07.491Z,17.82
2019-05-20T03:45:48.106Z,17.82
2019-05-20T03:46:28.728Z,17.86
2019-05-20T03:47:09.316Z,17.87
2019-05-20T03:47:49.934Z,17.83
2019-05-20T03:48:30.560Z,17.79
2019-05-20T03:49:11.159Z,17.9
2019-05-20T03:49:51.733Z,17.87
2019-05-20T03:50:32.327Z,17.82
2019-05-20T03:51:12.929Z,17.79
2019-05-20T03:51:53.541Z,17.83
2019-05-20T03:52:34.086Z,17.85
2019-05-20T03:53:14.717Z,17.87
2019-05-20T03:53:55.311Z,17.74
2019-05-20T03:54:35.907Z,17.82
2019-05-20T03:55:16.512Z,17.86
2019-05-20T03:55:57.106Z,17.82
2019-05-20T03:56:37.653Z,17.86
2019-05-20T03:57:18.216Z,17.86
2019-05-20T03:57:58.827Z,17.74
2019-05-20T03:58:39.403Z,17.8
2019-05-20T03:59:19.981Z,17.83
2019-05-20T04:00:00.591Z,17.87
2019-05-20T04:00:41.193Z,17.86
2019-05-20T04:01:21.774Z,17.79
2019-05-20T04:02:02.360Z,17.82
2019-05-20T04:02:42.955Z,17.87
2019-05-20T04:03:23.534Z,17.76
2019-05-20T04:04:04.135Z,17.76
2019-05-20T04:05:00.574Z,17.8
2019-05-20T04:05:25.349Z,17.85
2019-05-20T04:06:05.905Z,17.79
2019-05-20T04:06:46.469Z,17.79
2019-05-20T04:07:27.078Z,17.86
2019-05-20T04:08:07.639Z,17.87
2019-05-20T04:08:48.253Z,17.8
2019-05-20T04:09:28.850Z,17.83
2019-05-20T04:10:09.392Z,17.86
2019-05-20T04:10:49.953Z,17.82
2019-05-20T04:11:30.608Z,17.89
2019-05-20T04:12:11.185Z,17.83
2019-05-20T04:12:51.771Z,17.87
2019-05-20T04:13:34.758Z,17.86
2019-05-20T04:14:12.969Z,17.87
2019-05-20T04:14:53.681Z,17.85
2019-05-20T04:15:34.266Z,17.92
2019-05-20T04:16:14.834Z,17.89
2019-05-20T04:16:55.438Z,17.87
2019-05-20T04:17:36.097Z,17.85
2019-05-20T04:18:16.706Z,17.9
2019-05-20T04:18:57.303Z,17.85
2019-05-20T04:19:37.890Z,17.86
2019-05-20T04:20:18.469Z,17.86
2019-05-20T04:20:59.054Z,17.97
2019-05-20T04:21:39.699Z,17.82
2019-05-20T04:22:20.286Z,17.92
2019-05-20T04:23:00.893Z,17.92
2019-05-20T04:23:41.775Z,17.85
2019-05-20T04:24:22.323Z,17.92
2019-05-20T04:25:02.919Z,17.92
2019-05-20T04:25:43.507Z,17.83
2019-05-20T04:26:24.130Z,17.86
2019-05-20T04:27:04.687Z,17.87
2019-05-20T04:27:45.257Z,17.87
2019-05-20T04:28:25.940Z,17.87
2019-05-20T04:29:06.529Z,17.92
2019-05-20T04:29:47.138Z,17.94
2019-05-20T04:30:27.705Z,17.97
2019-05-20T04:31:08.291Z,17.95
2019-05-20T04:31:48.863Z,18
2019-05-20T04:32:29.464Z,17.95
2019-05-20T04:33:10.421Z,17.98
2019-05-20T04:33:51.216Z,17.98
2019-05-20T04:34:31.966Z,18
2019-05-20T04:35:21.849Z,18.01
2019-05-20T04:35:53.920Z,17.98
2019-05-20T04:36:34.853Z,18
2019-05-20T04:37:15.505Z,17.97
2019-05-20T04:37:56.288Z,18.1
2019-05-20T04:38:36.976Z,18.03
2019-05-20T04:39:18.005Z,18.05
2019-05-20T04:39:58.667Z,18.08
2019-05-20T04:40:39.220Z,18.07
2019-05-20T04:41:19.815Z,18
2019-05-20T04:42:01.001Z,18.1
2019-05-20T04:42:41.914Z,18.04
2019-05-20T04:43:22.479Z,18.07
2019-05-20T04:44:03.313Z,18.01
2019-05-20T04:44:43.902Z,18.01
2019-05-20T04:45:24.553Z,18.07
2019-05-20T04:46:05.164Z,18
2019-05-20T04:46:45.966Z,18.08
2019-05-20T04:47:26.615Z,18.07
2019-05-20T04:48:07.252Z,18.08
2019-05-20T04:48:48.112Z,18
2019-05-20T04:49:28.872Z,18.05
2019-05-20T04:50:09.484Z,18.07
2019-05-20T04:50:50.156Z,18.08
2019-05-20T04:51:30.840Z,18.08
2019-05-20T04:52:11.430Z,18.11
2019-05-20T04:52:51.993Z,18.04
2019-05-20T04:53:32.571Z,18.07
2019-05-20T04:54:13.177Z,18.03
2019-05-20T04:54:53.751Z,18.15
2019-05-20T04:55:34.333Z,18.05
2019-05-20T04:56:14.937Z,18.1
2019-05-20T04:56:55.574Z,18.07
2019-05-20T04:57:36.177Z,18.1
2019-05-20T04:58:16.762Z,18.05
2019-05-20T04:58:57.351Z,18.07
2019-05-20T04:59:37.953Z,18.01
2019-05-20T05:00:18.484Z,18.16
2019-05-20T05:00:59.035Z,18.03
2019-05-20T05:01:39.618Z,18.03
2019-05-20T05:02:20.266Z,18.1
2019-05-20T05:03:00.826Z,18.08
2019-05-20T05:03:41.418Z,18.1
2019-05-20T05:04:22.001Z,18.13
2019-05-20T05:05:02.682Z,18.08
2019-05-20T05:05:43.229Z,18.15
2019-05-20T05:06:23.872Z,18.2
2019-05-20T05:07:04.465Z,18.18
2019-05-20T05:07:45.082Z,18.19
2019-05-20T05:08:25.663Z,18.2
2019-05-20T05:09:06.272Z,18.16
2019-05-20T05:09:46.826Z,18.16
2019-05-20T05:10:27.557Z,18.16
2019-05-20T05:11:08.099Z,18.13
2019-05-20T05:11:48.654Z,18.16
2019-05-20T05:12:29.219Z,18.22
2019-05-20T05:13:09.779Z,18.19
2019-05-20T05:13:50.348Z,18.28
2019-05-20T05:14:31.045Z,18.26
2019-05-20T05:15:11.636Z,18.28
2019-05-20T05:15:52.357Z,18.29
2019-05-20T05:16:33.030Z,18.28
2019-05-20T05:17:13.611Z,18.29
2019-05-20T05:20:27.633Z,18.34
2019-05-20T05:21:08.251Z,18.44
2019-05-20T05:21:48.883Z,18.4
2019-05-20T05:22:29.481Z,18.43
2019-05-20T05:23:10.136Z,18.35
2019-05-20T05:23:58.614Z,18.4
2019-05-20T05:24:31.306Z,18.38
2019-05-20T05:25:11.989Z,18.45
2019-05-20T05:25:52.529Z,18.37
2019-05-20T05:26:33.376Z,18.45
2019-05-20T05:27:13.948Z,18.41
2019-05-20T05:27:54.543Z,18.53
2019-05-20T05:28:35.137Z,18.63
2019-05-20T05:29:15.712Z,18.7
2019-05-20T05:29:56.356Z,18.75
2019-05-20T05:30:37.007Z,18.81
2019-05-20T05:31:17.788Z,18.89
2019-05-20T05:31:58.368Z,18.92
2019-05-20T05:32:39.048Z,18.99
2019-05-20T05:33:19.584Z,19
2019-05-20T05:34:00.192Z,19.14
2019-05-20T05:34:40.835Z,19.21
2019-05-20T05:35:21.457Z,19.18
2019-05-20T05:36:02.129Z,19.21
2019-05-20T05:36:42.875Z,19.19
2019-05-20T05:37:23.676Z,19.3
2019-05-20T05:38:04.844Z,19.27
2019-05-20T05:38:45.826Z,19.3
2019-05-20T05:39:26.512Z,19.29
2019-05-20T05:40:08.124Z,19.36
2019-05-20T05:40:48.049Z,19.36
2019-05-20T05:41:28.760Z,19.4
2019-05-20T05:42:09.447Z,19.4
2019-05-20T05:42:49.998Z,19.37
2019-05-20T05:43:30.660Z,19.36
2019-05-20T05:44:11.285Z,19.34
2019-05-20T05:44:51.878Z,19.37
2019-05-20T05:45:32.496Z,19.48
2019-05-20T05:46:13.128Z,19.48
2019-05-20T05:46:53.743Z,19.48
2019-05-20T05:47:34.306Z,19.54
2019-05-20T05:48:14.948Z,19.63
2019-05-20T05:48:55.532Z,19.59
2019-05-20T05:49:36.145Z,19.66
2019-05-20T05:50:16.771Z,19.71
2019-05-20T05:50:57.348Z,19.76
2019-05-20T05:51:38.047Z,19.85
2019-05-20T05:52:18.605Z,19.92
2019-05-20T05:52:59.160Z,19.94
2019-05-20T05:53:39.757Z,20.03
2019-05-20T05:54:20.372Z,20.11
2019-05-20T05:55:01.071Z,20.32
2019-05-20T05:55:41.649Z,20.29
2019-05-20T05:56:22.259Z,20.37
2019-05-20T05:57:02.889Z,20.41
2019-05-20T05:57:43.500Z,20.4
2019-05-20T05:58:24.192Z,20.47
2019-05-20T05:59:04.779Z,20.58
2019-05-20T05:59:45.383Z,20.63
2019-05-20T06:00:25.948Z,20.62
2019-05-20T06:01:06.636Z,20.69
2019-05-20T06:01:47.159Z,20.69
2019-05-20T06:02:27.802Z,20.7
2019-05-20T06:03:08.361Z,20.67
2019-05-20T06:03:49.126Z,20.78
2019-05-20T06:04:29.810Z,20.81
2019-05-20T06:05:10.345Z,20.87
2019-05-20T06:05:51.111Z,20.93
2019-05-20T06:06:31.790Z,20.85
2019-05-20T06:07:12.440Z,20.85
2019-05-20T06:07:53.014Z,21.05
2019-05-20T06:08:33.664Z,20.99
2019-05-20T06:09:14.350Z,21.07
2019-05-20T06:09:54.956Z,21.05
2019-05-20T06:10:36.092Z,21.05
2019-05-20T06:11:16.180Z,21.12
2019-05-20T06:11:56.772Z,21.14
2019-05-20T06:12:37.394Z,21.09
2019-05-20T06:13:18.018Z,21.03
2019-05-20T06:13:58.640Z,21.12
2019-05-20T06:14:39.238Z,21.09
2019-05-20T06:15:19.838Z,21.12
2019-05-20T06:16:00.428Z,21.12
2019-05-20T06:16:41.005Z,21.11
2019-05-20T06:17:21.578Z,21.18
2019-05-20T06:18:02.142Z,21.24
2019-05-20T06:18:42.745Z,21.37
2019-05-20T06:19:23.379Z,21.52
2019-05-20T06:20:04.026Z,21.51
2019-05-20T06:20:44.692Z,21.7
2019-05-20T06:21:25.299Z,21.8
2019-05-20T06:22:06.160Z,21.8
2019-05-20T06:22:46.987Z,21.95
2019-05-20T06:23:27.662Z,21.89
2019-05-20T06:24:08.237Z,22
2019-05-20T06:24:48.865Z,22.04
2019-05-20T06:25:29.494Z,22.11
2019-05-20T06:26:10.070Z,22.25
2019-05-20T06:26:50.714Z,22.23
2019-05-20T06:27:31.538Z,22.38
2019-05-20T06:28:12.166Z,22.45
2019-05-20T06:28:52.996Z,22.45
2019-05-20T06:29:33.736Z,22.5
2019-05-20T06:30:14.373Z,22.55
2019-05-20T06:30:54.941Z,22.65
2019-05-20T06:31:35.538Z,22.63
2019-05-20T06:32:16.130Z,22.6
2019-05-20T06:32:56.684Z,22.66
2019-05-20T06:33:37.275Z,22.54
2019-05-20T06:34:17.876Z,22.62
2019-05-20T06:34:58.440Z,22.55
2019-05-20T06:35:39.030Z,22.53
2019-05-20T06:36:26.724Z,22.45
2019-05-20T06:37:00.316Z,22.5
2019-05-20T06:37:40.884Z,22.55
2019-05-20T06:38:21.486Z,22.63
2019-05-20T06:39:02.156Z,22.69
2019-05-20T06:39:42.802Z,22.69
2019-05-20T06:40:23.369Z,22.63
2019-05-20T06:41:03.948Z,22.53
2019-05-20T06:41:44.547Z,22.5
2019-05-20T06:42:25.114Z,22.53
2019-05-20T06:43:05.882Z,22.55
2019-05-20T06:43:46.552Z,22.63
2019-05-20T06:44:27.219Z,22.68
2019-05-20T06:45:07.801Z,22.73
2019-05-20T06:45:48.385Z,22.73
2019-05-20T06:46:28.965Z,22.8
2019-05-20T06:47:09.542Z,22.9
2019-05-20T06:47:50.109Z,22.85
2019-05-20T06:48:31.363Z,22.99
2019-05-20T06:49:11.953Z,22.98
2019-05-20T06:49:52.579Z,22.91
2019-05-20T06:50:33.113Z,22.99
2019-05-20T06:51:13.739Z,23.02
2019-05-20T06:51:54.339Z,23.09
2019-05-20T06:52:36.232Z,23.1
2019-05-20T06:53:15.540Z,23.05
2019-05-20T06:53:56.200Z,23.21
2019-05-20T06:54:36.796Z,23.2
2019-05-20T06:55:17.424Z,23.13
2019-05-20T06:55:58.011Z,23.15
2019-05-20T06:56:38.581Z,23.12
2019-05-20T06:57:19.156Z,23.09
2019-05-20T06:57:59.723Z,23.21
2019-05-20T06:58:40.303Z,23.12
2019-05-20T06:59:20.892Z,23.17
2019-05-20T07:00:01.500Z,23.17
2019-05-20T07:00:42.086Z,23.18
2019-05-20T07:01:22.650Z,23.24
2019-05-20T07:02:03.323Z,23.2
2019-05-20T07:02:43.841Z,23.39
2019-05-20T07:03:24.494Z,23.28
2019-05-20T07:04:05.066Z,23.4
2019-05-20T07:04:45.647Z,23.5
2019-05-20T07:05:26.236Z,23.43
2019-05-20T07:06:06.844Z,23.54
2019-05-20T07:06:47.832Z,23.58
2019-05-20T07:07:28.175Z,23.59
2019-05-20T07:08:08.755Z,23.61
2019-05-20T07:08:49.400Z,23.62
2019-05-20T07:09:29.970Z,23.55
2019-05-20T07:10:10.546Z,23.59
2019-05-20T07:10:51.167Z,23.55
2019-05-20T07:11:31.769Z,23.56
2019-05-20T07:12:12.382Z,23.63
2019-05-20T07:12:53.058Z,23.66
2019-05-20T07:13:33.631Z,23.74
2019-05-20T07:14:14.230Z,23.73
2019-05-20T07:14:54.880Z,23.8
2019-05-20T07:15:35.465Z,23.8
2019-05-20T07:16:16.058Z,23.83
2019-05-20T07:16:56.683Z,23.88
2019-05-20T07:17:37.292Z,23.92
2019-05-20T07:18:17.887Z,23.92
2019-05-20T07:18:58.486Z,23.95
2019-05-20T07:19:39.117Z,23.95
2019-05-20T07:20:19.710Z,23.93
2019-05-20T07:21:00.285Z,24.01
2019-05-20T07:21:40.976Z,24.11
2019-05-20T07:22:21.557Z,24.13
2019-05-20T07:23:02.217Z,24.13
2019-05-20T07:23:42.826Z,24.2
2019-05-20T07:24:23.417Z,24.18
2019-05-20T07:25:03.972Z,24.29
2019-05-20T07:25:44.560Z,24.28
2019-05-20T07:26:25.170Z,24.3
2019-05-20T07:27:05.787Z,24.35
2019-05-20T07:27:46.358Z,24.26
2019-05-20T07:28:26.973Z,24.38
2019-05-20T07:29:07.558Z,24.42
2019-05-20T07:29:48.143Z,24.48
2019-05-20T07:30:28.752Z,24.54
2019-05-20T07:31:09.336Z,24.6
2019-05-20T07:31:49.923Z,24.61
2019-05-20T07:32:30.556Z,24.63
2019-05-20T07:33:11.117Z,24.65
2019-05-20T07:33:51.722Z,24.73
2019-05-20T07:34:32.388Z,24.74
2019-05-20T07:35:28.620Z,24.76
2019-05-20T07:35:53.716Z,24.84
2019-05-20T07:36:34.273Z,24.78
2019-05-20T07:37:14.838Z,24.8
2019-05-20T07:37:55.482Z,24.76
2019-05-20T07:38:36.145Z,24.7
2019-05-20T07:39:16.789Z,24.84
2019-05-20T07:39:57.382Z,24.77
2019-05-20T07:40:37.991Z,24.74
2019-05-20T07:41:18.563Z,24.68
2019-05-20T07:41:59.212Z,24.6
2019-05-20T07:42:39.803Z,24.6
2019-05-20T07:43:20.352Z,24.57
2019-05-20T07:44:01.006Z,24.5
2019-05-20T07:44:41.597Z,24.39
2019-05-20T07:45:22.200Z,24.29
2019-05-20T07:46:02.818Z,24.24
2019-05-20T07:46:43.365Z,24.11
2019-05-20T07:47:23.953Z,24.16
2019-05-20T07:48:04.536Z,24.18
2019-05-20T07:48:45.211Z,24.13
2019-05-20T07:49:25.799Z,24.1
2019-05-20T07:50:06.408Z,24.1
2019-05-20T07:50:47.062Z,24.1
2019-05-20T07:51:27.623Z,24.18
2019-05-20T07:52:08.271Z,24.06
2019-05-20T07:52:48.869Z,24.17
2019-05-20T07:53:29.560Z,24.17
2019-05-20T07:54:10.129Z,24.24
2019-05-20T07:54:50.748Z,24.26
2019-05-20T07:55:31.319Z,24.29
2019-05-20T07:56:11.883Z,24.48
2019-05-20T07:56:52.472Z,24.54
2019-05-20T07:57:33.102Z,24.63
2019-05-20T07:58:13.718Z,24.65
2019-05-20T07:58:54.362Z,24.77
2019-05-20T07:59:34.955Z,24.76
2019-05-20T08:00:15.572Z,24.77
2019-05-20T08:00:56.170Z,24.8
2019-05-20T08:01:36.817Z,24.84
2019-05-20T08:02:17.421Z,24.8
2019-05-20T08:02:58.029Z,24.85
2019-05-20T08:03:38.869Z,24.8
2019-05-20T08:04:19.279Z,24.86
2019-05-20T08:05:00.037Z,24.84
2019-05-20T08:05:40.498Z,24.86
2019-05-20T08:06:21.123Z,24.88
2019-05-20T08:07:17.771Z,24.93
2019-05-20T08:07:51.663Z,24.86
2019-05-20T08:08:23.068Z,24.98
2019-05-20T08:09:03.641Z,24.92
2019-05-20T08:09:46.148Z,24.92
2019-05-20T08:10:25.027Z,25.07
2019-05-20T08:11:05.600Z,25.07
2019-05-20T08:13:18.505Z,25.17
2019-05-20T08:13:59.076Z,25.29
2019-05-20T08:14:39.675Z,25.18
2019-05-20T08:15:20.233Z,25.25
2019-05-20T08:16:00.796Z,25.21
2019-05-20T08:16:41.363Z,25.26
2019-05-20T08:17:21.969Z,25.23
2019-05-20T08:18:02.580Z,25.21
2019-05-20T08:18:43.227Z,25.23
2019-05-20T08:19:23.736Z,25.33
2019-05-20T08:20:04.339Z,25.33
2019-05-20T08:20:44.935Z,25.35
2019-05-20T08:21:25.508Z,25.25
2019-05-20T08:22:06.084Z,25.33
2019-05-20T08:22:46.677Z,25.33
2019-05-20T08:23:27.529Z,25.29
2019-05-20T08:24:08.105Z,25.32
2019-05-20T08:24:48.674Z,25.32
2019-05-20T08:25:29.247Z,25.28
2019-05-20T08:26:09.857Z,25.35
2019-05-20T08:26:50.450Z,25.41
2019-05-20T08:27:31.003Z,25.41
2019-05-20T08:28:11.576Z,25.44
2019-05-20T08:28:52.139Z,25.35
2019-05-20T08:29:32.711Z,25.36
2019-05-20T08:30:14.093Z,25.47
2019-05-20T08:30:53.824Z,25.41
2019-05-20T08:31:34.394Z,25.43
2019-05-20T08:32:14.968Z,25.35
2019-05-20T08:32:55.535Z,25.35
2019-05-20T08:33:36.285Z,25.35
2019-05-20T08:34:16.694Z,25.28
2019-05-20T08:34:57.257Z,25.21
2019-05-20T08:35:37.835Z,25.21
2019-05-20T08:36:18.396Z,25.28
2019-05-20T08:36:59.022Z,25.26
2019-05-20T08:37:45.153Z,25.28
2019-05-20T08:38:20.138Z,25.17
2019-05-20T08:39:00.720Z,25.14
2019-05-20T08:39:41.300Z,25.18
2019-05-20T08:40:21.914Z,25.28
2019-05-20T08:41:02.471Z,25.23
2019-05-20T08:41:43.049Z,25.16
2019-05-20T08:42:23.617Z,25.22
2019-05-20T08:43:04.227Z,25.28
2019-05-20T08:43:44.731Z,25.17
2019-05-20T08:44:25.303Z,25.31
2019-05-20T08:45:05.891Z,25.22
2019-05-20T08:45:46.448Z,25.28
2019-05-20T08:46:27.034Z,25.23
2019-05-20T08:47:07.601Z,25.23
2019-05-20T08:47:48.157Z,25.31
2019-05-20T08:48:28.830Z,25.36
2019-05-20T08:49:10.972Z,25.41
2019-05-20T08:49:50.207Z,25.47
2019-05-20T08:50:30.480Z,25.46
2019-05-20T08:51:11.057Z,25.46
2019-05-20T08:51:51.710Z,25.41
2019-05-20T08:52:32.201Z,25.43
2019-05-20T08:53:12.783Z,25.41
2019-05-20T08:53:53.389Z,25.33
2019-05-20T08:54:33.962Z,25.25
2019-05-20T08:55:14.592Z,25.18
2019-05-20T08:55:55.166Z,25.28
2019-05-20T08:56:35.722Z,25.25